createdAt,value
2022-07-25T00:01:04.217Z,11.93
2022-07-25T00:03:39.127Z,12.87
2022-07-25T00:06:13.565Z,13.93
2022-07-25T00:08:49.862Z,14.20
2022-07-25T00:11:22.145Z,12.50
2022-07-25T00:13:54.923Z,12.90
2022-07-25T00:16:26.902Z,12.00
2022-07-25T00:18:59.119Z,13.40
2022-07-25T00:21:31.293Z,13.10
2022-07-25T00:24:04.086Z,14.03
2022-07-25T00:26:40.247Z,13.60
2022-07-25T00:29:13.726Z,13.20
2022-07-25T00:31:45.730Z,14.47
2022-07-25T00:34:17.878Z,13.53
2022-07-25T00:36:49.962Z,12.87
2022-07-25T00:39:21.939Z,13.73
2022-07-25T00:41:53.946Z,12.83
2022-07-25T00:44:29.143Z,12.37
2022-07-25T00:47:02.785Z,12.97
2022-07-25T00:49:34.925Z,14.03
2022-07-25T00:52:07.158Z,12.50
2022-07-25T00:54:39.422Z,13.67
2022-07-25T00:57:11.789Z,14.37
2022-07-25T00:59:43.956Z,13.37
2022-07-25T01:02:16.197Z,13.13
2022-07-25T01:04:48.625Z,14.43
2022-07-25T01:07:21.449Z,13.00
2022-07-25T01:09:54.368Z,13.93
2022-07-25T01:12:26.565Z,14.07
2022-07-25T01:14:58.699Z,13.73
2022-07-25T01:17:30.703Z,13.53
2022-07-25T01:20:02.789Z,14.40
2022-07-25T01:22:35.337Z,14.33
2022-07-25T01:25:07.610Z,13.53
2022-07-25T01:27:41.500Z,14.20
2022-07-25T01:30:16.048Z,15.00
2022-07-25T01:32:48.605Z,15.10
2022-07-25T01:35:20.998Z,14.63
2022-07-25T01:37:53.224Z,14.80
2022-07-25T01:40:25.471Z,13.80
2022-07-25T01:42:57.813Z,15.43
2022-07-25T01:45:29.853Z,16.07
2022-07-25T01:48:01.918Z,14.70
2022-07-25T01:50:34.221Z,14.17
2022-07-25T01:53:06.794Z,13.80
2022-07-25T01:55:39.034Z,13.77
2022-07-25T01:58:12.065Z,12.70
2022-07-25T02:00:44.381Z,14.80
2022-07-25T02:03:31.578Z,13.30
2022-07-25T02:06:07.051Z,13.90
2022-07-25T02:08:39.213Z,13.03
2022-07-25T02:11:11.506Z,13.53
2022-07-25T02:13:43.551Z,13.30
2022-07-25T02:16:15.542Z,13.03
2022-07-25T02:18:47.635Z,12.60
2022-07-25T02:21:20.029Z,13.60
2022-07-25T02:23:52.226Z,13.10
2022-07-25T02:26:24.239Z,13.87
2022-07-25T02:28:56.170Z,13.87
2022-07-25T02:31:28.267Z,13.53
2022-07-25T02:34:00.422Z,12.90
2022-07-25T02:36:32.540Z,12.27
2022-07-25T02:39:04.680Z,13.73
2022-07-25T02:41:36.803Z,14.17
2022-07-25T02:44:12.398Z,13.90
2022-07-25T02:46:44.368Z,12.67
2022-07-25T02:49:17.322Z,14.30
2022-07-25T02:51:49.286Z,14.17
2022-07-25T02:54:21.469Z,13.93
2022-07-25T02:56:53.746Z,13.33
2022-07-25T02:59:25.701Z,13.60
2022-07-25T03:02:04.362Z,15.23
2022-07-25T03:04:36.360Z,14.73
2022-07-25T03:07:08.580Z,12.70
2022-07-25T03:09:40.700Z,13.30
2022-07-25T03:12:12.711Z,14.30
2022-07-25T03:14:44.688Z,14.30
2022-07-25T03:17:16.814Z,13.67
2022-07-25T03:19:48.938Z,13.43
2022-07-25T03:22:21.414Z,13.37
2022-07-25T03:24:54.071Z,13.90
2022-07-25T03:27:26.135Z,13.57
2022-07-25T03:29:58.408Z,12.87
2022-07-25T03:32:30.547Z,13.73
2022-07-25T03:35:02.705Z,14.50
2022-07-25T03:37:36.205Z,13.60
2022-07-25T03:40:09.186Z,13.50
2022-07-25T03:42:41.817Z,14.17
2022-07-25T03:45:14.076Z,13.70
2022-07-25T03:47:46.222Z,13.80
2022-07-25T03:50:18.336Z,14.20
2022-07-25T03:52:50.514Z,14.10
2022-07-25T03:55:22.508Z,14.07
2022-07-25T03:57:54.488Z,13.63
2022-07-25T04:00:26.487Z,13.17
2022-07-25T04:02:59.371Z,14.43
2022-07-25T04:05:31.305Z,14.20
2022-07-25T04:08:03.480Z,13.60
2022-07-25T04:10:37.618Z,14.27
2022-07-25T04:13:09.618Z,13.20
2022-07-25T04:15:41.673Z,13.77
2022-07-25T04:18:14.732Z,13.60
2022-07-25T04:20:50.529Z,14.60
2022-07-25T04:23:22.535Z,14.30
2022-07-25T04:25:55.727Z,12.33
2022-07-25T04:28:28.590Z,16.20
2022-07-25T04:31:01.098Z,14.60
2022-07-25T04:33:33.129Z,14.90
2022-07-25T04:36:09.953Z,15.07
2022-07-25T04:38:41.994Z,14.40
2022-07-25T04:41:14.042Z,15.30
2022-07-25T04:43:48.739Z,13.60
2022-07-25T04:46:22.254Z,14.00
2022-07-25T04:49:00.324Z,13.30
2022-07-25T04:51:32.476Z,12.53
2022-07-25T04:54:05.165Z,12.83
2022-07-25T04:56:37.512Z,13.23
2022-07-25T04:59:09.573Z,14.07
2022-07-25T05:01:41.535Z,12.43
2022-07-25T05:04:13.457Z,12.93
2022-07-25T05:06:45.391Z,12.83
2022-07-25T05:09:17.338Z,12.50
2022-07-25T05:11:54.163Z,12.57
2022-07-25T05:14:30.864Z,11.30
2022-07-25T05:17:05.644Z,11.73
2022-07-25T05:19:39.269Z,11.50
2022-07-25T05:22:14.719Z,13.03
2022-07-25T05:24:47.667Z,12.40
2022-07-25T05:27:29.919Z,11.40
2022-07-25T05:30:08.679Z,12.23
2022-07-25T05:32:45.065Z,11.00
2022-07-25T05:35:17.480Z,10.80
2022-07-25T05:37:49.536Z,12.20
2022-07-25T05:40:21.781Z,12.20
2022-07-25T05:42:55.445Z,12.43
2022-07-25T05:45:29.574Z,12.40
2022-07-25T05:48:02.006Z,12.10
2022-07-25T05:50:36.335Z,12.20
2022-07-25T05:53:08.484Z,12.67
2022-07-25T05:55:41.019Z,12.77
2022-07-25T05:58:13.489Z,12.03
2022-07-25T06:00:45.483Z,11.20
2022-07-25T06:03:18.846Z,11.47
2022-07-25T06:05:50.952Z,12.70
2022-07-25T06:08:23.046Z,12.00
2022-07-25T06:10:55.351Z,11.87
2022-07-25T06:13:29.038Z,11.17
2022-07-25T06:16:01.666Z,10.70
2022-07-25T06:18:34.419Z,10.80
2022-07-25T06:21:06.633Z,10.13
2022-07-25T06:23:38.691Z,11.03
2022-07-25T06:26:11.020Z,10.07
2022-07-25T06:28:43.099Z,9.97
2022-07-25T06:31:15.249Z,10.43
2022-07-25T06:33:47.498Z,9.37
2022-07-25T06:36:19.530Z,9.90
2022-07-25T06:38:51.632Z,9.80
2022-07-25T06:41:23.686Z,10.33
2022-07-25T06:43:55.639Z,9.50
2022-07-25T06:46:31.486Z,10.00
2022-07-25T06:49:03.838Z,8.63
2022-07-25T06:51:36.009Z,9.47
2022-07-25T06:54:08.732Z,9.10
2022-07-25T06:56:46.370Z,10.03
2022-07-25T06:59:18.342Z,9.17
2022-07-25T07:01:51.819Z,8.93
2022-07-25T07:04:24.074Z,8.87
2022-07-25T07:06:56.080Z,8.93
2022-07-25T07:09:28.140Z,8.37
2022-07-25T07:12:00.354Z,9.30
2022-07-25T07:14:32.549Z,8.63
2022-07-25T07:17:05.760Z,9.07
2022-07-25T07:19:43.972Z,7.90
2022-07-25T07:22:16.678Z,8.27
2022-07-25T07:24:48.754Z,8.30
2022-07-25T07:27:23.530Z,8.23
2022-07-25T07:29:55.567Z,8.27
2022-07-25T07:32:28.464Z,8.83
2022-07-25T07:35:00.614Z,9.27
2022-07-25T07:37:37.644Z,8.23
2022-07-25T07:40:16.891Z,7.80
2022-07-25T07:42:50.981Z,8.10
2022-07-25T07:45:25.696Z,8.80
2022-07-25T07:47:58.223Z,8.73
2022-07-25T07:50:30.373Z,8.20
2022-07-25T07:53:02.932Z,8.40
2022-07-25T07:56:10.857Z,8.33
2022-07-25T07:58:43.894Z,8.60
2022-07-25T08:01:16.297Z,8.27
2022-07-25T08:03:48.886Z,8.77
2022-07-25T08:06:21.135Z,10.50
2022-07-25T08:08:53.313Z,9.73
2022-07-25T08:11:26.610Z,8.67
2022-07-25T08:13:58.772Z,8.97
2022-07-25T08:16:31.217Z,9.07
2022-07-25T08:19:04.090Z,9.17
2022-07-25T08:21:36.352Z,8.97
2022-07-25T08:24:08.889Z,8.67
2022-07-25T08:26:41.732Z,9.07
2022-07-25T08:29:25.012Z,9.97
2022-07-25T08:32:00.039Z,9.27
2022-07-25T08:34:32.419Z,8.73
2022-07-25T08:37:05.280Z,7.70
2022-07-25T08:39:37.310Z,7.77
2022-07-25T08:42:11.218Z,7.93
2022-07-25T08:44:49.222Z,8.00
2022-07-25T08:47:30.339Z,8.10
2022-07-25T08:50:08.662Z,7.80
2022-07-25T08:52:45.499Z,8.10
2022-07-25T08:55:22.759Z,7.83
2022-07-25T08:57:55.286Z,7.87
2022-07-25T09:00:36.267Z,7.50
2022-07-25T09:03:09.259Z,8.20
2022-07-25T09:05:41.914Z,8.10
2022-07-25T09:08:20.432Z,7.63
2022-07-25T09:10:53.521Z,8.40
2022-07-25T09:13:26.432Z,8.33
2022-07-25T09:16:00.588Z,8.97
2022-07-25T09:18:36.625Z,8.40
2022-07-25T09:21:13.894Z,8.33
2022-07-25T09:23:47.807Z,8.50
2022-07-25T09:26:19.971Z,8.60
2022-07-25T09:28:53.642Z,9.43
2022-07-25T09:31:33.148Z,9.33
2022-07-25T09:34:08.712Z,9.37
2022-07-25T09:36:54.690Z,8.70
2022-07-25T09:39:45.416Z,9.80
2022-07-25T09:42:27.597Z,9.77
2022-07-25T09:45:06.716Z,9.73
2022-07-25T09:47:55.581Z,8.83
2022-07-25T09:50:42.035Z,8.90
2022-07-25T09:53:14.865Z,9.33
2022-07-25T09:55:47.145Z,10.00
2022-07-25T09:58:19.612Z,9.40
2022-07-25T10:00:55.934Z,8.93
2022-07-25T10:03:50.967Z,9.40
2022-07-25T10:06:50.030Z,8.50
2022-07-25T10:09:28.893Z,9.20
2022-07-25T10:12:09.436Z,8.53
2022-07-25T10:14:43.034Z,8.70
2022-07-25T10:17:36.650Z,7.90
2022-07-25T10:20:10.872Z,7.87
2022-07-25T10:22:56.140Z,8.57
2022-07-25T10:25:29.447Z,7.90
2022-07-25T10:28:11.694Z,7.77
2022-07-25T10:30:58.644Z,8.07
2022-07-25T10:33:41.636Z,7.30
2022-07-25T10:36:14.097Z,7.80
2022-07-25T10:38:46.955Z,7.70
2022-07-25T10:41:26.007Z,6.93
2022-07-25T10:44:01.919Z,7.30
2022-07-25T10:46:35.773Z,7.33
2022-07-25T10:49:08.908Z,7.70
2022-07-25T10:51:59.092Z,7.33
2022-07-25T10:54:38.010Z,7.47
2022-07-25T10:57:16.724Z,6.70
2022-07-25T10:59:49.057Z,8.63
2022-07-25T11:02:23.991Z,7.30
2022-07-25T11:05:02.957Z,7.00
2022-07-25T11:07:38.107Z,7.17
2022-07-25T11:10:28.204Z,6.50
2022-07-25T11:13:00.480Z,5.73
2022-07-25T11:15:32.628Z,17.77
2022-07-25T11:18:04.916Z,6.50
2022-07-25T11:20:37.343Z,5.17
2022-07-25T11:23:09.556Z,5.73
2022-07-25T11:25:43.484Z,5.53
2022-07-25T11:28:15.623Z,6.60
2022-07-25T11:30:48.026Z,5.90
2022-07-25T11:33:20.218Z,6.57
2022-07-25T11:35:52.502Z,5.50
2022-07-25T11:38:25.739Z,5.73
2022-07-25T11:41:01.962Z,5.83
2022-07-25T11:43:34.775Z,5.30
2022-07-25T11:46:07.935Z,6.17
2022-07-25T11:48:41.221Z,6.13
2022-07-25T11:51:18.901Z,5.63
2022-07-25T11:53:51.616Z,5.23
2022-07-25T11:59:18.004Z,5.70
2022-07-25T12:01:50.409Z,5.43
2022-07-25T12:04:23.937Z,5.43
2022-07-25T12:07:05.809Z,5.93
2022-07-25T12:09:38.157Z,5.80
2022-07-25T12:12:10.407Z,6.83
2022-07-25T12:14:43.896Z,6.00
2022-07-25T12:17:16.538Z,6.33
2022-07-25T12:19:55.099Z,5.83
2022-07-25T12:22:27.338Z,6.00
2022-07-25T12:24:59.564Z,5.87
2022-07-25T12:27:32.070Z,6.60
2022-07-25T12:30:05.355Z,8.30
2022-07-25T12:32:38.998Z,7.57
2022-07-25T12:35:13.693Z,6.37
2022-07-25T12:37:46.107Z,6.10
2022-07-25T12:40:18.449Z,6.87
2022-07-25T12:42:51.699Z,6.67
2022-07-25T12:45:25.840Z,6.43
2022-07-25T12:47:58.828Z,6.10
2022-07-25T12:50:31.243Z,7.00
2022-07-25T12:53:04.927Z,7.77
2022-07-25T12:55:40.962Z,7.70
2022-07-25T12:58:15.154Z,7.30
2022-07-25T13:00:49.339Z,7.27
2022-07-25T13:03:21.871Z,7.20
2022-07-25T13:05:54.373Z,7.37
2022-07-25T13:08:27.604Z,7.00
2022-07-25T13:10:59.690Z,7.40
2022-07-25T13:13:31.718Z,6.77
2022-07-25T13:16:04.171Z,7.23
2022-07-25T13:18:37.129Z,6.90
2022-07-25T13:21:09.600Z,6.50
2022-07-25T13:23:42.326Z,6.53
2022-07-25T13:26:14.976Z,7.37
2022-07-25T13:28:47.229Z,6.97
2022-07-25T13:31:22.720Z,7.30
2022-07-25T13:34:09.144Z,7.57
2022-07-25T13:36:41.804Z,6.37
2022-07-25T13:39:14.149Z,5.90
2022-07-25T13:41:47.218Z,5.97
2022-07-25T13:44:20.603Z,5.60
2022-07-25T13:46:53.870Z,5.70
2022-07-25T13:49:26.470Z,6.90
2022-07-25T13:51:58.750Z,6.80
2022-07-25T13:54:31.262Z,6.80
2022-07-25T13:57:04.081Z,6.27
2022-07-25T13:59:36.642Z,6.83
2022-07-25T14:02:09.489Z,6.87
2022-07-25T14:04:42.046Z,7.77
2022-07-25T14:07:14.313Z,7.40
2022-07-25T14:09:47.612Z,7.40
2022-07-25T14:12:19.670Z,7.17
2022-07-25T14:14:52.043Z,7.37
2022-07-25T14:17:29.744Z,7.77
2022-07-25T14:20:04.764Z,10.00
2022-07-25T14:22:39.564Z,8.07
2022-07-25T14:25:13.885Z,8.30
2022-07-25T14:27:46.180Z,7.80
2022-07-25T14:30:18.864Z,7.57
2022-07-25T14:32:51.118Z,9.07
2022-07-25T14:35:23.174Z,8.03
2022-07-25T14:37:55.391Z,8.10
2022-07-25T14:40:28.821Z,7.87
2022-07-25T14:43:01.129Z,8.43
2022-07-25T14:45:34.458Z,8.60
2022-07-25T14:48:08.042Z,7.90
2022-07-25T14:50:40.619Z,7.97
2022-07-25T14:53:13.531Z,8.30
2022-07-25T14:55:46.273Z,8.07
2022-07-25T14:58:18.485Z,8.37
2022-07-25T15:00:50.857Z,7.80
2022-07-25T15:03:23.320Z,8.63
2022-07-25T15:05:56.164Z,8.20
2022-07-25T15:08:29.522Z,8.47
2022-07-25T15:11:01.825Z,8.27
2022-07-25T15:13:34.296Z,8.27
2022-07-25T15:16:06.787Z,8.20
2022-07-25T15:19:05.510Z,8.20
2022-07-25T15:21:31.954Z,8.80
2022-07-25T15:24:05.638Z,7.73
2022-07-25T15:26:38.046Z,7.97
2022-07-25T15:29:12.273Z,7.47
2022-07-25T15:31:51.788Z,7.77
2022-07-25T15:34:25.167Z,7.20
2022-07-25T15:36:57.692Z,7.20
2022-07-25T15:39:30.185Z,8.00
2022-07-25T15:42:03.590Z,8.13
2022-07-25T15:44:36.513Z,7.33
2022-07-25T15:47:09.395Z,7.67
2022-07-25T15:49:42.472Z,8.03
2022-07-25T15:52:14.802Z,8.73
2022-07-25T15:54:47.292Z,8.13
2022-07-25T15:57:19.632Z,10.90
2022-07-25T15:59:52.425Z,7.70
2022-07-25T16:02:25.619Z,7.70
2022-07-25T16:04:57.997Z,7.90
2022-07-25T16:07:31.618Z,7.30
2022-07-25T16:10:05.871Z,7.90
2022-07-25T16:12:39.287Z,8.20
2022-07-25T16:15:12.742Z,7.33
2022-07-25T16:17:46.116Z,7.23
2022-07-25T16:20:20.741Z,7.20
2022-07-25T16:22:56.175Z,7.43
2022-07-25T16:25:31.289Z,7.43
2022-07-25T16:28:04.625Z,7.30
2022-07-25T16:30:37.841Z,7.67
2022-07-25T16:33:10.399Z,6.93
2022-07-25T16:35:43.324Z,7.53
2022-07-25T16:38:15.845Z,7.13
2022-07-25T16:40:51.282Z,6.40
2022-07-25T16:43:24.359Z,7.07
2022-07-25T16:45:56.613Z,7.00
2022-07-25T16:48:29.453Z,6.43
2022-07-25T16:51:02.548Z,5.97
2022-07-25T16:53:36.702Z,8.50
2022-07-25T16:56:09.465Z,6.23
2022-07-25T16:58:42.236Z,5.93
2022-07-25T17:01:15.507Z,6.10
2022-07-25T17:03:48.116Z,6.70
2022-07-25T17:06:20.787Z,6.13
2022-07-25T17:08:54.320Z,6.53
2022-07-25T17:11:27.575Z,6.80
2022-07-25T17:14:03.353Z,6.30
2022-07-25T17:16:36.471Z,6.10
2022-07-25T17:19:11.022Z,6.20
2022-07-25T17:21:43.613Z,6.20
2022-07-25T17:24:16.571Z,6.57
2022-07-25T17:26:49.597Z,6.80
2022-07-25T17:29:22.159Z,6.10
2022-07-25T17:31:57.637Z,7.30
2022-07-25T17:34:30.224Z,6.47
2022-07-25T17:37:03.113Z,7.17
2022-07-25T17:39:37.754Z,6.90
2022-07-25T17:42:10.341Z,8.60
2022-07-25T17:44:42.760Z,6.37
2022-07-25T17:47:15.162Z,6.43
2022-07-25T17:49:47.615Z,6.87
2022-07-25T17:52:20.615Z,7.33
2022-07-25T17:54:53.456Z,6.43
2022-07-25T17:57:27.148Z,6.53
2022-07-25T17:59:59.444Z,6.63
2022-07-25T18:02:31.821Z,6.10
2022-07-25T18:05:05.950Z,8.67
2022-07-25T18:07:45.769Z,6.60
2022-07-25T18:10:23.923Z,6.50
2022-07-25T18:12:56.352Z,6.60
2022-07-25T18:15:31.404Z,6.57
2022-07-25T18:18:03.817Z,6.67
2022-07-25T18:20:39.964Z,6.57
2022-07-25T18:23:12.514Z,7.17
2022-07-25T18:25:45.628Z,7.90
2022-07-25T18:28:18.041Z,7.73
2022-07-25T18:30:51.552Z,5.57
2022-07-25T18:33:23.907Z,6.00
2022-07-25T18:35:56.599Z,5.50
2022-07-25T18:38:28.717Z,5.90
2022-07-25T18:41:27.450Z,5.80
2022-07-25T18:43:54.423Z,8.47
2022-07-25T18:46:27.284Z,6.30
2022-07-25T18:49:01.770Z,4.83
2022-07-25T18:51:34.065Z,5.00
2022-07-25T18:54:06.539Z,6.20
2022-07-25T18:56:39.247Z,4.80
2022-07-25T18:59:11.513Z,5.73
2022-07-25T19:01:44.257Z,4.50
2022-07-25T19:04:17.524Z,4.70
2022-07-25T19:06:50.172Z,5.50
2022-07-25T19:09:22.634Z,4.70
2022-07-25T19:11:57.373Z,6.47
2022-07-25T19:14:30.917Z,4.77
2022-07-25T19:17:04.097Z,5.30
2022-07-25T19:19:37.296Z,4.73
2022-07-25T19:22:10.298Z,4.53
2022-07-25T19:24:43.543Z,8.53
2022-07-25T19:27:15.767Z,4.00
2022-07-25T19:29:49.300Z,4.73
2022-07-25T19:32:27.633Z,7.57
2022-07-25T19:34:59.965Z,5.37
2022-07-25T19:37:34.957Z,6.33
2022-07-25T19:40:07.855Z,4.47
2022-07-25T19:42:42.798Z,4.47
2022-07-25T19:45:14.978Z,4.80
2022-07-25T19:47:47.171Z,5.80
2022-07-25T19:50:19.965Z,4.50
2022-07-25T19:52:52.230Z,3.90
2022-07-25T19:55:24.342Z,4.03
2022-07-25T19:57:57.139Z,8.83
2022-07-25T20:00:30.243Z,5.70
2022-07-25T20:03:02.955Z,4.67
2022-07-25T20:05:36.713Z,4.10
2022-07-25T20:08:09.300Z,3.50
2022-07-25T20:10:42.195Z,4.87
2022-07-25T20:13:14.788Z,3.67
2022-07-25T20:15:47.321Z,4.73
2022-07-25T20:18:20.036Z,4.03
2022-07-25T20:20:52.323Z,3.53
2022-07-25T20:23:24.908Z,3.93
2022-07-25T20:25:57.585Z,3.90
2022-07-25T20:28:31.621Z,5.37
2022-07-25T20:31:05.241Z,4.43
2022-07-25T20:33:37.843Z,3.60
2022-07-25T20:36:10.455Z,3.47
2022-07-25T20:38:42.667Z,4.23
2022-07-25T20:41:16.409Z,3.17
2022-07-25T20:43:49.678Z,5.23
2022-07-25T20:46:22.354Z,4.70
2022-07-25T20:48:54.975Z,4.77
2022-07-25T20:51:27.543Z,3.40
2022-07-25T20:53:59.774Z,3.43
2022-07-25T20:56:34.309Z,3.03
2022-07-25T20:59:07.221Z,3.57
2022-07-25T21:01:40.708Z,3.57
2022-07-25T21:04:13.375Z,3.70
2022-07-25T21:06:47.845Z,3.40
2022-07-25T21:09:20.337Z,4.37
2022-07-25T21:11:52.537Z,3.63
2022-07-25T21:14:26.825Z,8.77
2022-07-25T21:16:59.296Z,3.37
2022-07-25T21:19:31.828Z,3.43
2022-07-25T21:22:04.568Z,4.97
2022-07-25T21:24:36.808Z,4.00
2022-07-25T21:27:09.897Z,4.23
2022-07-25T21:29:41.937Z,4.70
2022-07-25T21:32:14.341Z,3.50
2022-07-25T21:34:49.870Z,5.77
2022-07-25T21:37:22.717Z,3.17
2022-07-25T21:39:54.863Z,3.87
2022-07-25T21:42:28.028Z,3.97
2022-07-25T21:45:00.385Z,3.23
2022-07-25T21:47:32.684Z,5.13
2022-07-25T21:50:25.070Z,2.63
2022-07-25T21:53:14.757Z,2.60
2022-07-25T21:55:46.975Z,3.23
2022-07-25T21:58:21.538Z,3.50
2022-07-25T22:00:55.150Z,3.40
2022-07-25T22:03:27.248Z,3.13
2022-07-25T22:05:59.368Z,4.53
2022-07-25T22:08:31.594Z,3.10
2022-07-25T22:11:15.900Z,4.63
2022-07-25T22:13:54.134Z,2.90
2022-07-25T22:16:26.396Z,2.63
2022-07-25T22:18:59.727Z,6.50
2022-07-25T22:21:32.892Z,4.17
2022-07-25T22:24:05.153Z,3.83
2022-07-25T22:26:38.002Z,2.80
2022-07-25T22:29:10.708Z,3.57
2022-07-25T22:31:44.440Z,5.77
2022-07-25T22:34:16.836Z,3.43
2022-07-25T22:36:49.018Z,4.20
2022-07-25T22:39:21.581Z,2.80
2022-07-25T22:41:53.747Z,2.90
2022-07-25T22:44:25.794Z,2.77
2022-07-25T22:46:58.637Z,3.93
2022-07-25T22:49:30.635Z,2.97
2022-07-25T22:52:02.644Z,4.60
2022-07-25T22:54:35.767Z,4.60
2022-07-25T22:57:07.827Z,2.70
2022-07-25T22:59:39.990Z,3.53
2022-07-25T23:02:12.110Z,3.73
2022-07-25T23:04:44.170Z,3.57
2022-07-25T23:07:16.165Z,3.53
2022-07-25T23:09:48.202Z,3.53
2022-07-25T23:12:27.589Z,4.03
2022-07-25T23:14:59.646Z,3.03
2022-07-25T23:17:31.827Z,2.70
2022-07-25T23:20:04.450Z,5.57
2022-07-25T23:22:37.277Z,4.37
2022-07-25T23:25:10.661Z,2.80
2022-07-25T23:27:42.839Z,3.80
2022-07-25T23:30:16.462Z,4.27
2022-07-25T23:32:48.623Z,6.23
2022-07-25T23:35:20.633Z,2.63
2022-07-25T23:37:52.607Z,3.40
2022-07-25T23:40:24.723Z,3.20
2022-07-25T23:42:57.254Z,4.37
2022-07-25T23:45:29.282Z,3.23
2022-07-25T23:48:01.385Z,3.30
2022-07-25T23:50:34.954Z,3.60
2022-07-25T23:53:07.148Z,2.27
2022-07-25T23:55:40.384Z,4.87
2022-07-25T23:58:12.309Z,3.67
